sensor_id;sensor_type;location;lat;lon;timestamp;pressure;altitude;pressure_sealevel;temperature;humidity
4576;BME280;2300;51.874;8.430;2023-02-18T00:00:26;101258.47;;;8.04;100.00
4576;BME280;2300;51.874;8.430;2023-02-18T00:02:53;101266.91;;;8.09;100.00
4576;BME280;2300;51.874;8.430;2023-02-18T00:05:20;101254.78;;;8.18;100.00
4576;BME280;2300;51.874;8.430;2023-02-18T00:07:47;101257.09;;;8.21;100.00
4576;BME280;2300;51.874;8.430;2023-02-18T00:10:14;101263.19;;;8.16;100.00
4576;BME280;2300;51.874;8.430;2023-02-18T00:12:41;101263.19;;;8.16;100.00
4576;BME280;2300;51.874;8.430;2023-02-18T00:15:08;101259.56;;;8.03;100.00
4576;BME280;2300;51.874;8.430;2023-02-18T00:17:36;101267.38;;;8.12;100.00
4576;BME280;2300;51.874;8.430;2023-02-18T00:20:04;101266.53;;;8.12;100.00
4576;BME280;2300;51.874;8.430;2023-02-18T00:22:31;101256.81;;;8.09;100.00
4576;BME280;2300;51.874;8.430;2023-02-18T00:24:58;101269.94;;;8.20;100.00
4576;BME280;2300;51.874;8.430;2023-02-18T00:27:24;101263.91;;;8.38;100.00
4576;BME280;2300;51.874;8.430;2023-02-18T00:29:50;101265.47;;;8.54;100.00
4576;BME280;2300;51.874;8.430;2023-02-18T00:32:17;101250.03;;;8.46;100.00
4576;BME280;2300;51.874;8.430;2023-02-18T00:34:45;101255.81;;;8.64;100.00
4576;BME280;2300;51.874;8.430;2023-02-18T00:37:11;101250.31;;;8.64;100.00
4576;BME280;2300;51.874;8.430;2023-02-18T00:39:37;101254.63;;;8.80;100.00
4576;BME280;2300;51.874;8.430;2023-02-18T00:42:04;101234.75;;;8.65;100.00
4576;BME280;2300;51.874;8.430;2023-02-18T00:44:30;101247.25;;;8.81;100.00
4576;BME280;2300;51.874;8.430;2023-02-18T00:46:57;101255.47;;;8.81;100.00
4576;BME280;2300;51.874;8.430;2023-02-18T00:49:24;101251.19;;;8.71;100.00
4576;BME280;2300;51.874;8.430;2023-02-18T00:51:51;101251.66;;;8.75;100.00
4576;BME280;2300;51.874;8.430;2023-02-18T00:54:18;101254.84;;;8.85;100.00
4576;BME280;2300;51.874;8.430;2023-02-18T00:56:44;101255.88;;;8.97;100.00
4576;BME280;2300;51.874;8.430;2023-02-18T00:59:11;101266.00;;;8.97;100.00
4576;BME280;2300;51.874;8.430;2023-02-18T01:01:37;101257.59;;;8.98;100.00
4576;BME280;2300;51.874;8.430;2023-02-18T01:04:04;101250.00;;;9.07;100.00
4576;BME280;2300;51.874;8.430;2023-02-18T01:06:30;101259.47;;;8.98;100.00
4576;BME280;2300;51.874;8.430;2023-02-18T01:08:58;101256.34;;;9.01;100.00
4576;BME280;2300;51.874;8.430;2023-02-18T01:11:25;101248.50;;;8.98;100.00
4576;BME280;2300;51.874;8.430;2023-02-18T01:13:52;101246.03;;;9.16;100.00
4576;BME280;2300;51.874;8.430;2023-02-18T01:16:18;101249.16;;;9.13;100.00
4576;BME280;2300;51.874;8.430;2023-02-18T01:18:45;101236.94;;;9.15;100.00
4576;BME280;2300;51.874;8.430;2023-02-18T01:21:11;101244.09;;;9.23;100.00
4576;BME280;2300;51.874;8.430;2023-02-18T01:23:39;101238.44;;;9.25;100.00
4576;BME280;2300;51.874;8.430;2023-02-18T01:26:08;101220.50;;;9.09;100.00
4576;BME280;2300;51.874;8.430;2023-02-18T01:28:35;101236.09;;;9.15;100.00
4576;BME280;2300;51.874;8.430;2023-02-18T01:31:04;101234.00;;;9.10;100.00
4576;BME280;2300;51.874;8.430;2023-02-18T01:33:31;101236.31;;;9.20;100.00
4576;BME280;2300;51.874;8.430;2023-02-18T01:35:58;101240.75;;;9.14;100.00
4576;BME280;2300;51.874;8.430;2023-02-18T01:38:24;101234.00;;;9.24;100.00
4576;BME280;2300;51.874;8.430;2023-02-18T01:40:51;101234.44;;;9.21;100.00
4576;BME280;2300;51.874;8.430;2023-02-18T01:43:20;101217.13;;;9.20;100.00
4576;BME280;2300;51.874;8.430;2023-02-18T01:46:03;101217.34;;;9.19;100.00
4576;BME280;2300;51.874;8.430;2023-02-18T01:48:32;101219.03;;;9.20;100.00
4576;BME280;2300;51.874;8.430;2023-02-18T01:51:03;101211.66;;;9.13;100.00
4576;BME280;2300;51.874;8.430;2023-02-18T01:53:35;101217.13;;;9.13;100.00
4576;BME280;2300;51.874;8.430;2023-02-18T01:56:05;101215.66;;;9.24;100.00
4576;BME280;2300;51.874;8.430;2023-02-18T01:58:35;101212.50;;;9.14;100.00
4576;BME280;2300;51.874;8.430;2023-02-18T02:01:02;101205.31;;;9.13;100.00
4576;BME280;2300;51.874;8.430;2023-02-18T02:03:29;101202.81;;;9.25;100.00
4576;BME280;2300;51.874;8.430;2023-02-18T02:05:55;101199.00;;;9.19;100.00
4576;BME280;2300;51.874;8.430;2023-02-18T02:08:22;101193.53;;;9.32;100.00
4576;BME280;2300;51.874;8.430;2023-02-18T02:11:03;101182.38;;;9.27;100.00
4576;BME280;2300;51.874;8.430;2023-02-18T02:13:45;101186.34;;;9.31;100.00
4576;BME280;2300;51.874;8.430;2023-02-18T02:16:19;101186.75;;;9.41;100.00
4576;BME280;2300;51.874;8.430;2023-02-18T02:18:57;101178.09;;;9.44;100.00
4576;BME280;2300;51.874;8.430;2023-02-18T02:27:48;101162.06;;;9.54;100.00
4576;BME280;2300;51.874;8.430;2023-02-18T02:30:36;101156.38;;;9.49;100.00
4576;BME280;2300;51.874;8.430;2023-02-18T02:33:19;101163.94;;;9.54;100.00
4576;BME280;2300;51.874;8.430;2023-02-18T02:35:56;101161.44;;;9.52;100.00
4576;BME280;2300;51.874;8.430;2023-02-18T02:38:30;101155.91;;;9.59;100.00
4576;BME280;2300;51.874;8.430;2023-02-18T02:41:04;101145.38;;;9.63;100.00
4576;BME280;2300;51.874;8.430;2023-02-18T02:43:42;101132.72;;;9.62;100.00
4576;BME280;2300;51.874;8.430;2023-02-18T02:46:17;101123.88;;;9.59;100.00
4576;BME280;2300;51.874;8.430;2023-02-18T02:48:48;101114.66;;;9.47;100.00
4576;BME280;2300;51.874;8.430;2023-02-18T02:51:23;101108.50;;;9.58;100.00
4576;BME280;2300;51.874;8.430;2023-02-18T02:53:50;101101.91;;;9.66;100.00
4576;BME280;2300;51.874;8.430;2023-02-18T02:56:20;101109.75;;;9.63;100.00
4576;BME280;2300;51.874;8.430;2023-02-18T02:58:52;101109.53;;;9.57;100.00
4576;BME280;2300;51.874;8.430;2023-02-18T03:01:31;101105.09;;;9.63;100.00
4576;BME280;2300;51.874;8.430;2023-02-18T03:04:12;101097.34;;;9.53;100.00
4576;BME280;2300;51.874;8.430;2023-02-18T03:07:01;101098.97;;;9.61;100.00
4576;BME280;2300;51.874;8.430;2023-02-18T03:09:42;101091.78;;;9.73;100.00
4576;BME280;2300;51.874;8.430;2023-02-18T03:12:15;101085.63;;;9.78;100.00
4576;BME280;2300;51.874;8.430;2023-02-18T03:14:49;101079.13;;;9.66;100.00
4576;BME280;2300;51.874;8.430;2023-02-18T03:17:23;101082.94;;;9.65;100.00
4576;BME280;2300;51.874;8.430;2023-02-18T03:19:54;101085.00;;;9.76;100.00
4576;BME280;2300;51.874;8.430;2023-02-18T03:22:28;101081.88;;;9.66;100.00
4576;BME280;2300;51.874;8.430;2023-02-18T03:24:56;101071.97;;;9.65;100.00
4576;BME280;2300;51.874;8.430;2023-02-18T03:27:26;101067.13;;;9.60;100.00
4576;BME280;2300;51.874;8.430;2023-02-18T03:29:57;101067.38;;;9.58;100.00
4576;BME280;2300;51.874;8.430;2023-02-18T03:32:26;101071.97;;;9.65;100.00
4576;BME280;2300;51.874;8.430;2023-02-18T03:34:57;101065.78;;;9.76;100.00
4576;BME280;2300;51.874;8.430;2023-02-18T03:37:28;101059.28;;;9.70;100.00
4576;BME280;2300;51.874;8.430;2023-02-18T03:39:58;101060.97;;;9.71;100.00
4576;BME280;2300;51.874;8.430;2023-02-18T03:42:26;101044.53;;;9.65;100.00
4576;BME280;2300;51.874;8.430;2023-02-18T03:44:53;101036.97;;;9.60;100.00
4576;BME280;2300;51.874;8.430;2023-02-18T03:47:19;101041.59;;;9.59;100.00
4576;BME280;2300;51.874;8.430;2023-02-18T03:49:46;101032.50;;;9.66;100.00
4576;BME280;2300;51.874;8.430;2023-02-18T03:52:12;101020.50;;;9.67;100.00
4576;BME280;2300;51.874;8.430;2023-02-18T03:54:40;101031.66;;;9.65;100.00
4576;BME280;2300;51.874;8.430;2023-02-18T03:57:06;101028.69;;;9.73;100.00
4576;BME280;2300;51.874;8.430;2023-02-18T03:59:33;101019.84;;;9.65;100.00
4576;BME280;2300;51.874;8.430;2023-02-18T04:01:59;101011.59;;;9.71;100.00
4576;BME280;2300;51.874;8.430;2023-02-18T04:04:27;101011.63;;;9.65;100.00
4576;BME280;2300;51.874;8.430;2023-02-18T04:06:53;101007.19;;;9.70;100.00
4576;BME280;2300;51.874;8.430;2023-02-18T04:09:20;100990.16;;;9.62;100.00
4576;BME280;2300;51.874;8.430;2023-02-18T04:11:48;101005.69;;;9.74;100.00
4576;BME280;2300;51.874;8.430;2023-02-18T04:14:14;101001.88;;;9.75;100.00
4576;BME280;2300;51.874;8.430;2023-02-18T04:16:41;100995.78;;;9.73;100.00
4576;BME280;2300;51.874;8.430;2023-02-18T04:19:08;100996.00;;;9.72;100.00
4576;BME280;2300;51.874;8.430;2023-02-18T04:21:34;100998.47;;;9.80;100.00
4576;BME280;2300;51.874;8.430;2023-02-18T04:24:00;100992.56;;;9.83;100.00
4576;BME280;2300;51.874;8.430;2023-02-18T04:26:27;100996.81;;;9.79;100.00
4576;BME280;2300;51.874;8.430;2023-02-18T04:28:55;100985.78;;;9.85;100.00
4576;BME280;2300;51.874;8.430;2023-02-18T04:31:22;100985.56;;;9.87;100.00
4576;BME280;2300;51.874;8.430;2023-02-18T04:33:48;100993.88;;;9.74;100.00
4576;BME280;2300;51.874;8.430;2023-02-18T04:36:15;100972.38;;;9.71;100.00
4576;BME280;2300;51.874;8.430;2023-02-18T04:38:41;100976.09;;;9.83;100.00
4576;BME280;2300;51.874;8.430;2023-02-18T04:41:08;100977.72;;;9.90;100.00
4576;BME280;2300;51.874;8.430;2023-02-18T04:43:37;100970.63;;;9.83;100.00
4576;BME280;2300;51.874;8.430;2023-02-18T04:46:04;100971.50;;;9.77;100.00
4576;BME280;2300;51.874;8.430;2023-02-18T04:48:31;100972.31;;;9.84;100.00
4576;BME280;2300;51.874;8.430;2023-02-18T04:50:59;100968.94;;;9.82;100.00
4576;BME280;2300;51.874;8.430;2023-02-18T04:53:25;100966.00;;;9.77;100.00
4576;BME280;2300;51.874;8.430;2023-02-18T04:55:52;100960.25;;;9.85;100.00
4576;BME280;2300;51.874;8.430;2023-02-18T04:58:20;100953.72;;;9.86;100.00
4576;BME280;2300;51.874;8.430;2023-02-18T05:00:47;100953.53;;;9.81;100.00
4576;BME280;2300;51.874;8.430;2023-02-18T05:03:15;100953.66;;;9.92;100.00
4576;BME280;2300;51.874;8.430;2023-02-18T05:05:41;100958.41;;;9.79;100.00
4576;BME280;2300;51.874;8.430;2023-02-18T05:08:08;100949.44;;;9.90;100.00
4576;BME280;2300;51.874;8.430;2023-02-18T05:10:36;100944.69;;;9.79;100.00
4576;BME280;2300;51.874;8.430;2023-02-18T05:13:02;100954.53;;;9.86;100.00
4576;BME280;2300;51.874;8.430;2023-02-18T05:15:29;100952.25;;;9.83;100.00
4576;BME280;2300;51.874;8.430;2023-02-18T05:17:55;100954.59;;;9.80;100.00
4576;BME280;2300;51.874;8.430;2023-02-18T05:20:23;100943.38;;;9.88;100.00
4576;BME280;2300;51.874;8.430;2023-02-18T05:22:49;100943.53;;;9.93;100.00
4576;BME280;2300;51.874;8.430;2023-02-18T05:25:16;100930.06;;;9.85;100.00
4576;BME280;2300;51.874;8.430;2023-02-18T05:27:42;100924.75;;;9.90;100.00
4576;BME280;2300;51.874;8.430;2023-02-18T05:30:10;100920.78;;;9.86;100.00
4576;BME280;2300;51.874;8.430;2023-02-18T05:32:36;100919.72;;;9.87;100.00
4576;BME280;2300;51.874;8.430;2023-02-18T05:35:03;100921.59;;;9.93;100.00
4576;BME280;2300;51.874;8.430;2023-02-18T05:37:31;100907.34;;;9.78;100.00
4576;BME280;2300;51.874;8.430;2023-02-18T05:39:57;100901.38;;;9.87;100.00
4576;BME280;2300;51.874;8.430;2023-02-18T05:42:24;100906.56;;;9.95;100.00
4576;BME280;2300;51.874;8.430;2023-02-18T05:44:50;100880.69;;;9.85;100.00
4576;BME280;2300;51.874;8.430;2023-02-18T05:47:17;100884.06;;;9.87;100.00
4576;BME280;2300;51.874;8.430;2023-02-18T05:49:44;100880.69;;;9.85;100.00
4576;BME280;2300;51.874;8.430;2023-02-18T05:52:10;100889.91;;;9.97;100.00
4576;BME280;2300;51.874;8.430;2023-02-18T05:54:39;100880.88;;;9.90;100.00
4576;BME280;2300;51.874;8.430;2023-02-18T05:57:05;100886.97;;;9.92;100.00
4576;BME280;2300;51.874;8.430;2023-02-18T05:59:32;100863.34;;;9.91;100.00
4576;BME280;2300;51.874;8.430;2023-02-18T06:01:58;100859.16;;;9.88;100.00
4576;BME280;2300;51.874;8.430;2023-02-18T06:04:30;100863.19;;;9.86;100.00
4576;BME280;2300;51.874;8.430;2023-02-18T06:06:59;100865.03;;;9.92;100.00
4576;BME280;2300;51.874;8.430;2023-02-18T06:09:25;100858.72;;;9.91;100.00
4576;BME280;2300;51.874;8.430;2023-02-18T06:11:53;100854.38;;;9.84;100.00
4576;BME280;2300;51.874;8.430;2023-02-18T06:14:20;100850.38;;;9.80;100.00
4576;BME280;2300;51.874;8.430;2023-02-18T06:16:46;100844.88;;;9.80;100.00
4576;BME280;2300;51.874;8.430;2023-02-18T06:19:13;100845.69;;;9.87;100.00
4576;BME280;2300;51.874;8.430;2023-02-18T06:21:39;100833.00;;;9.86;100.00
4576;BME280;2300;51.874;8.430;2023-02-18T06:24:06;100825.81;;;9.67;100.00
4576;BME280;2300;51.874;8.430;2023-02-18T06:26:33;100832.00;;;9.80;100.00
4576;BME280;2300;51.874;8.430;2023-02-18T06:29:02;100829.59;;;9.90;100.00
4576;BME280;2300;51.874;8.430;2023-02-18T06:31:29;100814.13;;;9.78;100.00
4576;BME280;2300;51.874;8.430;2023-02-18T06:33:55;100820.66;;;9.77;100.00
4576;BME280;2300;51.874;8.430;2023-02-18T06:36:22;100827.81;;;9.78;100.00
4576;BME280;2300;51.874;8.430;2023-02-18T06:38:48;100826.31;;;9.82;100.00
4576;BME280;2300;51.874;8.430;2023-02-18T06:41:14;100827.63;;;9.79;100.00
4576;BME280;2300;51.874;8.430;2023-02-18T06:43:41;100825.97;;;9.72;100.00
4576;BME280;2300;51.874;8.430;2023-02-18T06:46:09;100837.31;;;9.75;100.00
4576;BME280;2300;51.874;8.430;2023-02-18T06:48:35;100833.91;;;9.80;100.00
4576;BME280;2300;51.874;8.430;2023-02-18T06:51:02;100835.00;;;9.79;100.00
4576;BME280;2300;51.874;8.430;2023-02-18T06:53:29;100821.38;;;9.66;100.00
4576;BME280;2300;51.874;8.430;2023-02-18T06:55:55;100826.16;;;9.77;100.00
4576;BME280;2300;51.874;8.430;2023-02-18T06:58:22;100819.97;;;9.81;100.00
4576;BME280;2300;51.874;8.430;2023-02-18T07:00:48;100808.13;;;9.63;100.00
4576;BME280;2300;51.874;8.430;2023-02-18T07:03:16;100821.28;;;9.79;100.00
4576;BME280;2300;51.874;8.430;2023-02-18T07:05:43;100803.50;;;9.63;100.00
4576;BME280;2300;51.874;8.430;2023-02-18T07:08:09;100826.53;;;9.80;100.00
4576;BME280;2300;51.874;8.430;2023-02-18T07:10:36;100811.28;;;9.59;100.00
4576;BME280;2300;51.874;8.430;2023-02-18T07:13:03;100814.53;;;9.75;100.00
4576;BME280;2300;51.874;8.430;2023-02-18T07:15:29;100803.19;;;9.71;100.00
4576;BME280;2300;51.874;8.430;2023-02-18T07:17:56;100801.91;;;9.74;100.00
4576;BME280;2300;51.874;8.430;2023-02-18T07:20:24;100806.56;;;9.73;100.00
4576;BME280;2300;51.874;8.430;2023-02-18T07:22:51;100804.00;;;9.78;100.00
4576;BME280;2300;51.874;8.430;2023-02-18T07:25:18;100803.56;;;9.75;100.00
4576;BME280;2300;51.874;8.430;2023-02-18T07:27:44;100800.41;;;9.78;100.00
4576;BME280;2300;51.874;8.430;2023-02-18T07:30:12;100798.50;;;9.78;100.00
4576;BME280;2300;51.874;8.430;2023-02-18T07:32:38;100817.44;;;9.80;100.00
4576;BME280;2300;51.874;8.430;2023-02-18T07:35:06;100801.91;;;9.74;100.00
4576;BME280;2300;51.874;8.430;2023-02-18T07:37:34;100792.78;;;9.80;100.00
4576;BME280;2300;51.874;8.430;2023-02-18T07:40:00;100794.63;;;9.86;100.00
4576;BME280;2300;51.874;8.430;2023-02-18T07:42:27;100806.59;;;9.91;100.00
4576;BME280;2300;51.874;8.430;2023-02-18T07:44:53;100790.50;;;9.77;100.00
4576;BME280;2300;51.874;8.430;2023-02-18T07:47:19;100798.41;;;9.85;100.00
4576;BME280;2300;51.874;8.430;2023-02-18T07:49:46;100805.00;;;9.84;100.00
4576;BME280;2300;51.874;8.430;2023-02-18T07:52:13;100804.25;;;9.95;100.00
4576;BME280;2300;51.874;8.430;2023-02-18T07:54:41;100803.63;;;9.93;100.00
4576;BME280;2300;51.874;8.430;2023-02-18T07:57:07;100791.81;;;9.92;100.00
4576;BME280;2300;51.874;8.430;2023-02-18T07:59:34;100794.94;;;9.96;100.00
4576;BME280;2300;51.874;8.430;2023-02-18T08:02:01;100803.09;;;9.84;100.00
4576;BME280;2300;51.874;8.430;2023-02-18T08:04:27;100806.16;;;9.94;100.00
4576;BME280;2300;51.874;8.430;2023-02-18T08:06:54;100809.75;;;9.95;100.00
4576;BME280;2300;51.874;8.430;2023-02-18T08:09:20;100800.44;;;9.96;100.00
4576;BME280;2300;51.874;8.430;2023-02-18T08:11:48;100793.72;;;9.92;100.00
4576;BME280;2300;51.874;8.430;2023-02-18T08:14:14;100805.75;;;9.91;100.00
4576;BME280;2300;51.874;8.430;2023-02-18T08:16:42;100792.88;;;9.91;100.00
4576;BME280;2300;51.874;8.430;2023-02-18T08:19:08;100806.38;;;9.93;100.00
4576;BME280;2300;51.874;8.430;2023-02-18T08:21:35;100811.88;;;9.93;100.00
4576;BME280;2300;51.874;8.430;2023-02-18T08:24:01;100807.16;;;10.00;100.00
4576;BME280;2300;51.874;8.430;2023-02-18T08:26:27;100798.25;;;10.05;100.00
4576;BME280;2300;51.874;8.430;2023-02-18T08:28:55;100797.84;;;10.01;100.00
4576;BME280;2300;51.874;8.430;2023-02-18T08:31:23;100796.19;;;10.00;100.00
4576;BME280;2300;51.874;8.430;2023-02-18T08:33:50;100799.00;;;9.93;100.00
4576;BME280;2300;51.874;8.430;2023-02-18T08:36:17;100791.09;;;10.04;100.00
4576;BME280;2300;51.874;8.430;2023-02-18T08:38:44;100794.88;;;10.02;100.00
4576;BME280;2300;51.874;8.430;2023-02-18T08:41:10;100798.31;;;9.98;100.00
4576;BME280;2300;51.874;8.430;2023-02-18T08:43:38;100802.41;;;9.89;100.00
4576;BME280;2300;51.874;8.430;2023-02-18T08:46:06;100803.34;;;10.01;100.00
4576;BME280;2300;51.874;8.430;2023-02-18T08:48:32;100795.41;;;9.93;100.00
4576;BME280;2300;51.874;8.430;2023-02-18T08:50:59;100801.59;;;10.07;100.00
4576;BME280;2300;51.874;8.430;2023-02-18T08:53:25;100794.03;;;10.02;100.00
4576;BME280;2300;51.874;8.430;2023-02-18T08:55:52;100815.72;;;10.10;100.00
4576;BME280;2300;51.874;8.430;2023-02-18T08:58:18;100814.78;;;9.98;100.00
4576;BME280;2300;51.874;8.430;2023-02-18T09:00:45;100809.44;;;10.03;100.00
4576;BME280;2300;51.874;8.430;2023-02-18T09:03:14;100810.81;;;10.12;100.00
4576;BME280;2300;51.874;8.430;2023-02-18T09:05:41;100801.59;;;10.07;100.00
4576;BME280;2300;51.874;8.430;2023-02-18T09:08:08;100786.44;;;10.04;100.00
4576;BME280;2300;51.874;8.430;2023-02-18T09:10:34;100783.53;;;9.99;100.00
4576;BME280;2300;51.874;8.430;2023-02-18T09:13:01;100803.34;;;10.01;100.00
4576;BME280;2300;51.874;8.430;2023-02-18T09:15:27;100775.53;;;9.97;100.00
4576;BME280;2300;51.874;8.430;2023-02-18T09:17:56;100774.31;;;10.12;100.00
4576;BME280;2300;51.874;8.430;2023-02-18T09:20:24;100775.69;;;10.02;100.00
4576;BME280;2300;51.874;8.430;2023-02-18T09:22:50;100782.16;;;10.08;100.00
4576;BME280;2300;51.874;8.430;2023-02-18T09:25:17;100780.16;;;9.97;100.00
4576;BME280;2300;51.874;8.430;2023-02-18T09:27:43;100778.94;;;9.93;100.00
4576;BME280;2300;51.874;8.430;2023-02-18T09:30:10;100779.69;;;9.82;100.00
4576;BME280;2300;51.874;8.430;2023-02-18T09:32:37;100781.59;;;9.81;100.00
4576;BME280;2300;51.874;8.430;2023-02-18T09:35:04;100776.16;;;9.75;100.00
4576;BME280;2300;51.874;8.430;2023-02-18T09:37:32;100801.31;;;9.90;100.00
4576;BME280;2300;51.874;8.430;2023-02-18T09:39:59;100781.00;;;9.79;100.00
4576;BME280;2300;51.874;8.430;2023-02-18T09:42:29;100771.91;;;9.79;100.00
4576;BME280;2300;51.874;8.430;2023-02-18T09:44:59;100772.09;;;9.84;100.00
4576;BME280;2300;51.874;8.430;2023-02-18T09:47:30;100762.75;;;9.67;100.00
4576;BME280;2300;51.874;8.430;2023-02-18T09:50:03;100780.31;;;9.84;100.00
4576;BME280;2300;51.874;8.430;2023-02-18T09:52:34;100776.44;;;9.67;100.00
4576;BME280;2300;51.874;8.430;2023-02-18T09:55:15;100779.97;;;9.74;100.00
4576;BME280;2300;51.874;8.430;2023-02-18T09:57:44;100775.09;;;9.76;100.00
4576;BME280;2300;51.874;8.430;2023-02-18T10:00:13;100771.13;;;9.72;100.00
4576;BME280;2300;51.874;8.430;2023-02-18T10:02:46;100774.81;;;9.84;100.00
4576;BME280;2300;51.874;8.430;2023-02-18T10:05:15;100774.50;;;9.74;100.00
4576;BME280;2300;51.874;8.430;2023-02-18T10:07:44;100779.34;;;9.72;100.00
4576;BME280;2300;51.874;8.430;2023-02-18T10:10:17;100766.88;;;9.76;100.00
4576;BME280;2300;51.874;8.430;2023-02-18T10:12:46;100783.56;;;9.74;100.00
4576;BME280;2300;51.874;8.430;2023-02-18T10:15:20;100778.72;;;9.70;100.00
4576;BME280;2300;51.874;8.430;2023-02-18T10:17:48;100794.47;;;9.56;100.00
4576;BME280;2300;51.874;8.430;2023-02-18T10:20:19;100767.34;;;9.48;100.00
4576;BME280;2300;51.874;8.430;2023-02-18T10:22:49;100788.34;;;9.54;100.00
4576;BME280;2300;51.874;8.430;2023-02-18T10:25:19;100779.41;;;9.40;100.00
4576;BME280;2300;51.874;8.430;2023-02-18T10:27:47;100785.69;;;9.47;100.00
4576;BME280;2300;51.874;8.430;2023-02-18T10:30:22;100777.38;;;9.29;100.00
4576;BME280;2300;51.874;8.430;2023-02-18T10:32:54;100780.09;;;9.36;100.00
4576;BME280;2300;51.874;8.430;2023-02-18T10:35:24;100783.28;;;9.33;100.00
4576;BME280;2300;51.874;8.430;2023-02-18T10:38:01;100770.66;;;9.25;100.00
4576;BME280;2300;51.874;8.430;2023-02-18T10:40:34;100800.19;;;9.23;100.00
4576;BME280;2300;51.874;8.430;2023-02-18T10:43:11;100801.78;;;9.37;100.00
4576;BME280;2300;51.874;8.430;2023-02-18T10:45:47;100799.47;;;9.34;100.00
4576;BME280;2300;51.874;8.430;2023-02-18T10:48:25;100787.06;;;9.32;100.00
4576;BME280;2300;51.874;8.430;2023-02-18T10:50:55;100790.03;;;9.30;100.00
4576;BME280;2300;51.874;8.430;2023-02-18T10:53:30;100786.81;;;9.33;100.00
4576;BME280;2300;51.874;8.430;2023-02-18T10:55:59;100791.66;;;9.38;100.00
4576;BME280;2300;51.874;8.430;2023-02-18T10:58:30;100807.69;;;9.34;100.00
4576;BME280;2300;51.874;8.430;2023-02-18T11:00:57;100800.53;;;9.33;100.00
4576;BME280;2300;51.874;8.430;2023-02-18T11:03:35;100783.56;;;9.18;100.00
4576;BME280;2300;51.874;8.430;2023-02-18T11:06:04;100785.00;;;9.27;100.00
4576;BME280;2300;51.874;8.430;2023-02-18T11:08:41;100778.72;;;9.45;100.00
4576;BME280;2300;51.874;8.430;2023-02-18T11:11:13;100790.38;;;9.40;100.00
4576;BME280;2300;51.874;8.430;2023-02-18T11:13:41;100784.72;;;9.35;100.00
4576;BME280;2300;51.874;8.430;2023-02-18T11:16:10;100794.53;;;9.18;100.00
4576;BME280;2300;51.874;8.430;2023-02-18T11:18:38;100797.91;;;9.20;100.00
4576;BME280;2300;51.874;8.430;2023-02-18T11:21:19;100797.63;;;9.28;100.00
4576;BME280;2300;51.874;8.430;2023-02-18T11:23:48;100794.44;;;9.31;100.00
4576;BME280;2300;51.874;8.430;2023-02-18T11:26:18;100791.25;;;9.34;100.00
4576;BME280;2300;51.874;8.430;2023-02-18T11:28:49;100787.00;;;9.38;100.00
4576;BME280;2300;51.874;8.430;2023-02-18T11:31:20;100784.94;;;9.34;100.00
4576;BME280;2300;51.874;8.430;2023-02-18T11:33:50;100795.63;;;9.42;100.00
4576;BME280;2300;51.874;8.430;2023-02-18T11:36:21;100772.94;;;9.28;100.00
4576;BME280;2300;51.874;8.430;2023-02-18T11:38:52;100794.16;;;9.39;100.00
4576;BME280;2300;51.874;8.430;2023-02-18T11:41:30;100782.81;;;9.36;100.00
4576;BME280;2300;51.874;8.430;2023-02-18T11:43:59;100797.38;;;9.36;100.00
4576;BME280;2300;51.874;8.430;2023-02-18T11:46:27;100792.19;;;9.22;100.00
4576;BME280;2300;51.874;8.430;2023-02-18T11:48:55;100790.53;;;9.21;100.00
4576;BME280;2300;51.874;8.430;2023-02-18T11:51:24;100788.56;;;9.28;100.00
4576;BME280;2300;51.874;8.430;2023-02-18T11:53:59;100811.44;;;9.40;100.00
4576;BME280;2300;51.874;8.430;2023-02-18T11:56:28;100798.75;;;9.45;100.00
4576;BME280;2300;51.874;8.430;2023-02-18T11:58:56;100800.44;;;9.46;100.00
4576;BME280;2300;51.874;8.430;2023-02-18T12:01:41;100795.69;;;9.35;100.00
4576;BME280;2300;51.874;8.430;2023-02-18T12:04:12;100810.09;;;9.24;100.00
4576;BME280;2300;51.874;8.430;2023-02-18T12:06:45;100799.75;;;9.26;100.00
4576;BME280;2300;51.874;8.430;2023-02-18T12:09:22;100800.25;;;9.17;100.00
4576;BME280;2300;51.874;8.430;2023-02-18T12:11:53;100799.72;;;9.33;100.00
4576;BME280;2300;51.874;8.430;2023-02-18T12:14:22;100812.09;;;9.42;100.00
4576;BME280;2300;51.874;8.430;2023-02-18T12:17:11;100789.84;;;9.25;100.00
4576;BME280;2300;51.874;8.430;2023-02-18T12:20:00;100806.97;;;9.21;100.00
4576;BME280;2300;51.874;8.430;2023-02-18T12:22:35;100805.44;;;9.25;100.00
4576;BME280;2300;51.874;8.430;2023-02-18T12:25:21;100801.00;;;9.30;100.00
4576;BME280;2300;51.874;8.430;2023-02-18T12:27:56;100788.78;;;9.26;100.00
4576;BME280;2300;51.874;8.430;2023-02-18T12:31:03;100795.84;;;9.40;100.00
4576;BME280;2300;51.874;8.430;2023-02-18T12:33:38;100794.25;;;9.33;100.00
4576;BME280;2300;51.874;8.430;2023-02-18T12:36:12;100781.63;;;9.25;100.00
4576;BME280;2300;51.874;8.430;2023-02-18T12:38:53;100800.81;;;9.25;100.00
4576;BME280;2300;51.874;8.430;2023-02-18T12:41:33;100795.53;;;9.24;100.00
4576;BME280;2300;51.874;8.430;2023-02-18T12:44:13;100799.13;;;9.24;100.00
4576;BME280;2300;51.874;8.430;2023-02-18T12:46:58;100769.50;;;9.08;100.00
4576;BME280;2300;51.874;8.430;2023-02-18T12:49:40;100794.09;;;9.21;100.00
4576;BME280;2300;51.874;8.430;2023-02-18T12:52:21;100801.44;;;9.27;100.00
4576;BME280;2300;51.874;8.430;2023-02-18T12:55:04;100800.91;;;9.12;100.00
4576;BME280;2300;51.874;8.430;2023-02-18T12:57:52;100778.16;;;9.11;100.00
4576;BME280;2300;51.874;8.430;2023-02-18T13:00:56;100794.31;;;9.20;100.00
4576;BME280;2300;51.874;8.430;2023-02-18T13:03:52;100804.41;;;9.26;100.00
4576;BME280;2300;51.874;8.430;2023-02-18T13:06:41;100788.78;;;9.26;100.00
4576;BME280;2300;51.874;8.430;2023-02-18T13:09:21;100795.06;;;9.33;100.00
4576;BME280;2300;51.874;8.430;2023-02-18T13:11:59;100795.50;;;9.30;100.00
4576;BME280;2300;51.874;8.430;2023-02-18T13:14:30;100794.66;;;9.30;100.00
4576;BME280;2300;51.874;8.430;2023-02-18T13:17:00;100811.09;;;9.30;100.00
4576;BME280;2300;51.874;8.430;2023-02-18T13:19:30;100808.41;;;9.23;100.00
4576;BME280;2300;51.874;8.430;2023-02-18T13:22:02;100800.47;;;9.15;100.00
4576;BME280;2300;51.874;8.430;2023-02-18T13:24:32;100803.16;;;9.22;100.00
4576;BME280;2300;51.874;8.430;2023-02-18T13:27:05;100820.00;;;9.25;100.00
4576;BME280;2300;51.874;8.430;2023-02-18T13:29:38;100798.91;;;9.26;100.00